sensor_id;sensor_type;location;lat;lon;timestamp;pressure;altitude;pressure_sealevel;temperature;humidity
64388;BME280;50709;52.648;4.764;2023-05-07T00:02:16;101694.69;;;18.13;71.40
64388;BME280;50709;52.648;4.764;2023-05-07T00:04:42;101664.75;;;17.50;72.60
64388;BME280;50709;52.648;4.764;2023-05-07T00:07:07;101691.25;;;17.42;73.67
64388;BME280;50709;52.648;4.764;2023-05-07T00:09:32;101692.00;;;17.54;73.32
64388;BME280;50709;52.648;4.764;2023-05-07T00:11:58;101694.63;;;17.54;74.82
64388;BME280;50709;52.648;4.764;2023-05-07T00:14:23;101699.72;;;17.68;73.68
64388;BME280;50709;52.648;4.764;2023-05-07T00:16:48;101705.63;;;17.17;75.77
64388;BME280;50709;52.648;4.764;2023-05-07T00:19:14;101708.09;;;17.32;75.25
64388;BME280;50709;52.648;4.764;2023-05-07T00:21:39;101690.75;;;17.11;75.65
64388;BME280;50709;52.648;4.764;2023-05-07T00:24:06;101701.78;;;17.45;74.65
64388;BME280;50709;52.648;4.764;2023-05-07T00:26:31;101694.78;;;17.41;74.67
64388;BME280;50709;52.648;4.764;2023-05-07T00:28:57;101704.25;;;17.58;74.33
64388;BME280;50709;52.648;4.764;2023-05-07T00:31:22;101676.56;;;17.85;73.28
64388;BME280;50709;52.648;4.764;2023-05-07T00:33:47;101696.84;;;17.85;73.32
64388;BME280;50709;52.648;4.764;2023-05-07T00:36:13;101683.50;;;17.28;75.21
64388;BME280;50709;52.648;4.764;2023-05-07T00:38:38;101692.72;;;17.63;74.35
64388;BME280;50709;52.648;4.764;2023-05-07T00:41:04;101677.56;;;17.78;73.41
64388;BME280;50709;52.648;4.764;2023-05-07T00:43:30;101689.13;;;17.69;73.91
64388;BME280;50709;52.648;4.764;2023-05-07T00:45:55;101692.38;;;17.88;73.69
64388;BME280;50709;52.648;4.764;2023-05-07T00:48:21;101700.59;;;17.66;74.15
64388;BME280;50709;52.648;4.764;2023-05-07T00:50:47;101696.25;;;17.65;74.33
64388;BME280;50709;52.648;4.764;2023-05-07T00:53:13;101688.28;;;17.67;74.08
64388;BME280;50709;52.648;4.764;2023-05-07T00:55:39;101689.28;;;17.57;74.37
64388;BME280;50709;52.648;4.764;2023-05-07T00:58:05;101667.09;;;17.70;73.42
64388;BME280;50709;52.648;4.764;2023-05-07T01:00:31;101689.88;;;17.80;74.15
64388;BME280;50709;52.648;4.764;2023-05-07T01:02:57;101692.31;;;17.94;73.16
64388;BME280;50709;52.648;4.764;2023-05-07T01:05:23;101654.00;;;17.64;73.80
64388;BME280;50709;52.648;4.764;2023-05-07T01:07:51;101676.34;;;17.40;75.01
64388;BME280;50709;52.648;4.764;2023-05-07T01:10:18;101680.59;;;17.48;75.07
64388;BME280;50709;52.648;4.764;2023-05-07T01:12:44;101662.28;;;17.36;74.94
64388;BME280;50709;52.648;4.764;2023-05-07T01:15:10;101679.72;;;17.49;75.82
64388;BME280;50709;52.648;4.764;2023-05-07T01:17:40;101656.78;;;17.55;74.99
64388;BME280;50709;52.648;4.764;2023-05-07T01:20:07;101643.84;;;17.31;75.16
64388;BME280;50709;52.648;4.764;2023-05-07T01:22:37;101658.38;;;17.65;74.00
64388;BME280;50709;52.648;4.764;2023-05-07T01:25:04;101676.06;;;17.61;74.22
64388;BME280;50709;52.648;4.764;2023-05-07T01:27:30;101671.47;;;17.73;74.01
64388;BME280;50709;52.648;4.764;2023-05-07T01:29:55;101659.88;;;17.83;73.77
64388;BME280;50709;52.648;4.764;2023-05-07T01:32:28;101682.41;;;17.46;74.57
64388;BME280;50709;52.648;4.764;2023-05-07T01:34:57;101681.81;;;17.90;73.49
64388;BME280;50709;52.648;4.764;2023-05-07T01:37:24;101675.97;;;17.66;74.34
64388;BME280;50709;52.648;4.764;2023-05-07T01:39:50;101686.78;;;17.47;74.00
64388;BME280;50709;52.648;4.764;2023-05-07T01:42:15;101680.31;;;17.70;74.31
64388;BME280;50709;52.648;4.764;2023-05-07T01:44:41;101676.84;;;17.66;74.00
64388;BME280;50709;52.648;4.764;2023-05-07T01:47:07;101678.72;;;17.57;74.37
64388;BME280;50709;52.648;4.764;2023-05-07T01:49:34;101687.28;;;17.74;73.68
64388;BME280;50709;52.648;4.764;2023-05-07T01:52:00;101667.06;;;17.72;73.72
64388;BME280;50709;52.648;4.764;2023-05-07T01:54:26;101689.28;;;17.57;73.86
64388;BME280;50709;52.648;4.764;2023-05-07T01:56:56;101677.59;;;17.76;73.57
64388;BME280;50709;52.648;4.764;2023-05-07T01:59:22;101676.84;;;17.66;73.42
64388;BME280;50709;52.648;4.764;2023-05-07T02:01:47;101686.44;;;17.74;73.25
64388;BME280;50709;52.648;4.764;2023-05-07T02:04:13;101673.69;;;17.41;74.04
64388;BME280;50709;52.648;4.764;2023-05-07T02:06:38;101654.06;;;17.59;73.57
64388;BME280;50709;52.648;4.764;2023-05-07T02:09:03;101670.47;;;17.80;73.19
64388;BME280;50709;52.648;4.764;2023-05-07T02:11:29;101676.69;;;17.76;73.22
64388;BME280;50709;52.648;4.764;2023-05-07T02:13:54;101684.03;;;17.55;74.21
64388;BME280;50709;52.648;4.764;2023-05-07T02:16:20;101683.84;;;17.69;73.29
64388;BME280;50709;52.648;4.764;2023-05-07T02:18:46;101679.22;;;17.85;72.63
64388;BME280;50709;52.648;4.764;2023-05-07T02:21:11;101680.69;;;17.41;73.99
64388;BME280;50709;52.648;4.764;2023-05-07T02:23:37;101687.44;;;17.63;73.80
64388;BME280;50709;52.648;4.764;2023-05-07T02:26:03;101657.06;;;17.30;74.26
64388;BME280;50709;52.648;4.764;2023-05-07T02:28:29;101680.00;;;17.28;75.40
64388;BME280;50709;52.648;4.764;2023-05-07T02:30:55;101679.66;;;17.54;74.42
64388;BME280;50709;52.648;4.764;2023-05-07T02:33:20;101658.66;;;17.43;74.61
64388;BME280;50709;52.648;4.764;2023-05-07T02:35:45;101681.47;;;17.51;74.31
64388;BME280;50709;52.648;4.764;2023-05-07T02:38:11;101673.19;;;17.07;75.22
64388;BME280;50709;52.648;4.764;2023-05-07T02:40:36;101666.25;;;17.00;75.65
64388;BME280;50709;52.648;4.764;2023-05-07T02:43:04;101647.09;;;16.80;76.49
64388;BME280;50709;52.648;4.764;2023-05-07T02:45:31;101682.81;;;17.12;75.58
64388;BME280;50709;52.648;4.764;2023-05-07T02:47:56;101669.91;;;16.85;76.60
64388;BME280;50709;52.648;4.764;2023-05-07T02:50:22;101682.09;;;17.00;75.68
64388;BME280;50709;52.648;4.764;2023-05-07T02:52:47;101679.19;;;17.21;75.47
64388;BME280;50709;52.648;4.764;2023-05-07T02:55:13;101687.16;;;17.20;75.34
64388;BME280;50709;52.648;4.764;2023-05-07T02:57:38;101666.38;;;16.87;76.00
64388;BME280;50709;52.648;4.764;2023-05-07T03:00:33;101682.59;;;17.31;74.98
64388;BME280;50709;52.648;4.764;2023-05-07T03:02:58;101680.81;;;17.35;74.32
64388;BME280;50709;52.648;4.764;2023-05-07T03:05:24;101673.28;;;17.02;75.46
64388;BME280;50709;52.648;4.764;2023-05-07T03:07:49;101676.91;;;16.89;75.94
64388;BME280;50709;52.648;4.764;2023-05-07T03:10:14;101672.34;;;17.06;75.12
64388;BME280;50709;52.648;4.764;2023-05-07T03:12:40;101662.03;;;16.80;76.60
64388;BME280;50709;52.648;4.764;2023-05-07T03:15:06;101675.31;;;16.71;76.01
64388;BME280;50709;52.648;4.764;2023-05-07T03:17:31;101683.84;;;17.01;75.92
64388;BME280;50709;52.648;4.764;2023-05-07T03:19:57;101688.81;;;17.27;74.47
64388;BME280;50709;52.648;4.764;2023-05-07T03:22:22;101679.25;;;17.18;73.59
64388;BME280;50709;52.648;4.764;2023-05-07T03:24:48;101664.94;;;17.36;73.53
64388;BME280;50709;52.648;4.764;2023-05-07T03:27:14;101678.06;;;17.41;72.76
64388;BME280;50709;52.648;4.764;2023-05-07T03:29:40;101676.97;;;17.56;73.11
64388;BME280;50709;52.648;4.764;2023-05-07T03:32:05;101679.28;;;17.80;72.02
64388;BME280;50709;52.648;4.764;2023-05-07T03:34:31;101677.47;;;17.86;71.50
64388;BME280;50709;52.648;4.764;2023-05-07T03:36:56;101668.00;;;17.69;72.02
64388;BME280;50709;52.648;4.764;2023-05-07T03:39:22;101655.59;;;17.74;71.81
64388;BME280;50709;52.648;4.764;2023-05-07T03:41:47;101657.41;;;17.72;71.72
64388;BME280;50709;52.648;4.764;2023-05-07T03:44:12;101669.44;;;17.90;71.16
64388;BME280;50709;52.648;4.764;2023-05-07T03:46:38;101668.78;;;17.76;71.57
64388;BME280;50709;52.648;4.764;2023-05-07T03:49:03;101665.16;;;17.83;71.02
64388;BME280;50709;52.648;4.764;2023-05-07T03:51:29;101667.69;;;17.89;70.79
64388;BME280;50709;52.648;4.764;2023-05-07T03:53:55;101667.00;;;17.78;70.75
64388;BME280;50709;52.648;4.764;2023-05-07T03:56:22;101662.63;;;17.75;71.19
64388;BME280;50709;52.648;4.764;2023-05-07T03:58:48;101662.84;;;17.60;71.25
64388;BME280;50709;52.648;4.764;2023-05-07T04:01:13;101677.75;;;17.65;71.20
64388;BME280;50709;52.648;4.764;2023-05-07T04:03:39;101669.97;;;17.55;71.56
64388;BME280;50709;52.648;4.764;2023-05-07T04:06:04;101670.75;;;17.61;71.51
64388;BME280;50709;52.648;4.764;2023-05-07T04:08:30;101668.09;;;17.63;71.32
64388;BME280;50709;52.648;4.764;2023-05-07T04:10:58;101683.13;;;17.58;71.37
64388;BME280;50709;52.648;4.764;2023-05-07T04:13:25;101665.47;;;17.61;71.04
64388;BME280;50709;52.648;4.764;2023-05-07T04:15:51;101655.69;;;17.68;70.93
64388;BME280;50709;52.648;4.764;2023-05-07T04:18:16;101672.22;;;17.81;71.14
64388;BME280;50709;52.648;4.764;2023-05-07T04:20:42;101679.56;;;17.60;71.28
64388;BME280;50709;52.648;4.764;2023-05-07T04:23:08;101689.25;;;17.61;71.27
64388;BME280;50709;52.648;4.764;2023-05-07T04:25:34;101677.50;;;17.81;70.87
64388;BME280;50709;52.648;4.764;2023-05-07T04:27:59;101672.75;;;17.42;71.33
64388;BME280;50709;52.648;4.764;2023-05-07T04:30:25;101680.25;;;17.75;70.66
64388;BME280;50709;52.648;4.764;2023-05-07T04:32:50;101687.34;;;17.71;70.84
64388;BME280;50709;52.648;4.764;2023-05-07T04:35:16;101665.28;;;17.75;70.13
64388;BME280;50709;52.648;4.764;2023-05-07T04:37:42;101688.47;;;17.52;71.74
64388;BME280;50709;52.648;4.764;2023-05-07T04:40:08;101688.19;;;17.75;70.45
64388;BME280;50709;52.648;4.764;2023-05-07T04:42:33;101695.94;;;17.84;70.70
64388;BME280;50709;52.648;4.764;2023-05-07T04:44:59;101696.78;;;17.92;70.29
64388;BME280;50709;52.648;4.764;2023-05-07T04:47:25;101698.69;;;17.78;70.03
64388;BME280;50709;52.648;4.764;2023-05-07T04:49:50;101702.59;;;17.49;70.66
64388;BME280;50709;52.648;4.764;2023-05-07T04:52:15;101704.81;;;17.80;70.61
64388;BME280;50709;52.648;4.764;2023-05-07T04:54:41;101703.75;;;17.96;70.07
64388;BME280;50709;52.648;4.764;2023-05-07T04:57:07;101715.47;;;17.75;70.83
64388;BME280;50709;52.648;4.764;2023-05-07T04:59:32;101714.66;;;17.70;70.63
64388;BME280;50709;52.648;4.764;2023-05-07T05:01:58;101715.53;;;17.69;71.31
64388;BME280;50709;52.648;4.764;2023-05-07T05:04:23;101709.16;;;17.86;70.90
64388;BME280;50709;52.648;4.764;2023-05-07T05:06:49;101717.47;;;17.58;71.70
64388;BME280;50709;52.648;4.764;2023-05-07T05:09:15;101708.81;;;17.46;71.29
64388;BME280;50709;52.648;4.764;2023-05-07T05:11:41;101715.06;;;17.39;72.12
64388;BME280;50709;52.648;4.764;2023-05-07T05:14:06;101711.31;;;17.57;72.04
64388;BME280;50709;52.648;4.764;2023-05-07T05:16:32;101699.88;;;17.55;71.90
64388;BME280;50709;52.648;4.764;2023-05-07T05:18:58;101692.31;;;17.26;72.32
64388;BME280;50709;52.648;4.764;2023-05-07T05:21:23;101708.69;;;17.54;72.10
64388;BME280;50709;52.648;4.764;2023-05-07T05:23:48;101712.56;;;17.27;73.23
64388;BME280;50709;52.648;4.764;2023-05-07T05:26:14;101717.66;;;17.42;73.13
64388;BME280;50709;52.648;4.764;2023-05-07T05:28:39;101718.66;;;17.32;73.33
64388;BME280;50709;52.648;4.764;2023-05-07T05:31:05;101718.72;;;17.29;73.58
64388;BME280;50709;52.648;4.764;2023-05-07T05:33:30;101722.91;;;17.45;72.70
64388;BME280;50709;52.648;4.764;2023-05-07T05:35:56;101733.63;;;17.30;73.79
64388;BME280;50709;52.648;4.764;2023-05-07T05:38:21;101723.56;;;16.84;75.01
64388;BME280;50709;52.648;4.764;2023-05-07T05:40:47;101740.53;;;17.42;73.54
64388;BME280;50709;52.648;4.764;2023-05-07T05:43:13;101748.59;;;17.31;74.35
64388;BME280;50709;52.648;4.764;2023-05-07T05:45:38;101738.91;;;17.31;73.75
64388;BME280;50709;52.648;4.764;2023-05-07T05:48:04;101738.13;;;17.25;74.56
64388;BME280;50709;52.648;4.764;2023-05-07T05:50:30;101739.88;;;17.24;74.77
64388;BME280;50709;52.648;4.764;2023-05-07T05:52:55;101726.78;;;17.15;74.98
64388;BME280;50709;52.648;4.764;2023-05-07T05:55:21;101750.47;;;17.21;74.71
64388;BME280;50709;52.648;4.764;2023-05-07T05:57:47;101750.16;;;17.47;73.50
64388;BME280;50709;52.648;4.764;2023-05-07T06:00:13;101749.81;;;17.02;75.34
64388;BME280;50709;52.648;4.764;2023-05-07T06:02:38;101737.59;;;16.89;75.82
64388;BME280;50709;52.648;4.764;2023-05-07T06:05:04;101760.50;;;16.84;76.67
64388;BME280;50709;52.648;4.764;2023-05-07T06:07:30;101757.91;;;16.80;78.09
64388;BME280;50709;52.648;4.764;2023-05-07T06:09:55;101755.00;;;17.08;75.36
64388;BME280;50709;52.648;4.764;2023-05-07T06:12:21;101765.53;;;17.10;76.31
64388;BME280;50709;52.648;4.764;2023-05-07T06:14:46;101766.78;;;16.69;77.97
64388;BME280;50709;52.648;4.764;2023-05-07T06:17:11;101768.13;;;17.16;76.80
64388;BME280;50709;52.648;4.764;2023-05-07T06:19:37;101769.19;;;16.95;77.27
64388;BME280;50709;52.648;4.764;2023-05-07T06:22:02;101758.81;;;16.73;78.04
64388;BME280;50709;52.648;4.764;2023-05-07T06:24:28;101762.78;;;17.22;77.17
64388;BME280;50709;52.648;4.764;2023-05-07T06:26:54;101761.44;;;16.75;78.31
64388;BME280;50709;52.648;4.764;2023-05-07T06:29:19;101758.97;;;17.45;75.89
64388;BME280;50709;52.648;4.764;2023-05-07T06:31:45;101758.22;;;17.35;75.62
64388;BME280;50709;52.648;4.764;2023-05-07T06:34:10;101774.25;;;17.20;75.83
64388;BME280;50709;52.648;4.764;2023-05-07T06:36:39;101782.25;;;17.10;77.00
64388;BME280;50709;52.648;4.764;2023-05-07T06:39:05;101767.91;;;17.36;76.24
64388;BME280;50709;52.648;4.764;2023-05-07T06:41:30;101774.22;;;17.21;76.12
64388;BME280;50709;52.648;4.764;2023-05-07T06:43:55;101760.00;;;17.35;74.88
64388;BME280;50709;52.648;4.764;2023-05-07T06:46:21;101777.69;;;17.28;76.28
64388;BME280;50709;52.648;4.764;2023-05-07T06:48:46;101784.72;;;17.27;76.24
64388;BME280;50709;52.648;4.764;2023-05-07T06:51:12;101783.16;;;17.09;78.13
64388;BME280;50709;52.648;4.764;2023-05-07T06:53:37;101776.19;;;17.02;76.72
64388;BME280;50709;52.648;4.764;2023-05-07T06:56:02;101780.25;;;17.32;75.92
64388;BME280;50709;52.648;4.764;2023-05-07T06:58:28;101766.94;;;17.42;75.84
64388;BME280;50709;52.648;4.764;2023-05-07T07:00:53;101763.53;;;17.34;76.42
64388;BME280;50709;52.648;4.764;2023-05-07T07:03:18;101755.47;;;17.44;75.19
64388;BME280;50709;52.648;4.764;2023-05-07T07:05:44;101782.19;;;17.18;77.56
64388;BME280;50709;52.648;4.764;2023-05-07T07:08:10;101774.28;;;17.18;76.91
64388;BME280;50709;52.648;4.764;2023-05-07T07:10:35;101738.84;;;17.38;75.51
64388;BME280;50709;52.648;4.764;2023-05-07T07:13:00;101775.06;;;17.26;76.01
64388;BME280;50709;52.648;4.764;2023-05-07T07:15:26;101763.69;;;17.20;76.56
64388;BME280;50709;52.648;4.764;2023-05-07T07:17:51;101768.81;;;17.34;76.21
64388;BME280;50709;52.648;4.764;2023-05-07T07:20:17;101766.84;;;17.51;75.87
64388;BME280;50709;52.648;4.764;2023-05-07T07:22:42;101756.00;;;17.74;74.73
64388;BME280;50709;52.648;4.764;2023-05-07T07:25:08;101747.91;;;17.13;75.39
64388;BME280;50709;52.648;4.764;2023-05-07T07:27:34;101757.53;;;17.19;76.41
64388;BME280;50709;52.648;4.764;2023-05-07T07:29:59;101774.88;;;17.42;76.46
64388;BME280;50709;52.648;4.764;2023-05-07T07:32:25;101764.53;;;17.25;75.69
64388;BME280;50709;52.648;4.764;2023-05-07T07:34:51;101770.25;;;17.59;73.99
64388;BME280;50709;52.648;4.764;2023-05-07T07:37:16;101774.28;;;17.88;73.87
64388;BME280;50709;52.648;4.764;2023-05-07T07:39:41;101772.09;;;17.54;75.06
64388;BME280;50709;52.648;4.764;2023-05-07T07:42:07;101776.31;;;17.68;75.22
64388;BME280;50709;52.648;4.764;2023-05-07T07:44:33;101782.31;;;17.82;74.50
64388;BME280;50709;52.648;4.764;2023-05-07T07:46:58;101765.06;;;18.20;72.93
64388;BME280;50709;52.648;4.764;2023-05-07T07:49:24;101773.47;;;17.85;74.34
64388;BME280;50709;52.648;4.764;2023-05-07T07:51:49;101780.75;;;17.67;74.19
64388;BME280;50709;52.648;4.764;2023-05-07T07:54:14;101785.72;;;17.92;74.54
64388;BME280;50709;52.648;4.764;2023-05-07T07:56:40;101785.38;;;18.16;75.83
64388;BME280;50709;52.648;4.764;2023-05-07T07:59:08;101783.59;;;18.19;73.50
64388;BME280;50709;52.648;4.764;2023-05-07T08:01:33;101774.44;;;18.41;72.47
64388;BME280;50709;52.648;4.764;2023-05-07T08:03:59;101778.84;;;18.42;73.02
64388;BME280;50709;52.648;4.764;2023-05-07T08:06:24;101772.66;;;18.98;71.01
64388;BME280;50709;52.648;4.764;2023-05-07T08:08:51;101764.47;;;19.10;70.35
64388;BME280;50709;52.648;4.764;2023-05-07T08:11:17;101777.84;;;19.49;69.63
64388;BME280;50709;52.648;4.764;2023-05-07T08:13:42;101774.94;;;19.18;69.09
64388;BME280;50709;52.648;4.764;2023-05-07T08:16:08;101756.22;;;19.26;68.87
64388;BME280;50709;52.648;4.764;2023-05-07T08:18:33;101776.06;;;19.50;68.83
64388;BME280;50709;52.648;4.764;2023-05-07T08:20:59;101788.69;;;19.81;67.68
64388;BME280;50709;52.648;4.764;2023-05-07T08:23:24;101788.31;;;19.56;67.70
64388;BME280;50709;52.648;4.764;2023-05-07T08:25:50;101783.94;;;19.08;68.74
64388;BME280;50709;52.648;4.764;2023-05-07T08:28:16;101781.78;;;19.72;68.55
64388;BME280;50709;52.648;4.764;2023-05-07T08:30:41;101783.50;;;19.31;69.97
64388;BME280;50709;52.648;4.764;2023-05-07T08:33:08;101768.81;;;19.58;69.15
64388;BME280;50709;52.648;4.764;2023-05-07T08:35:34;101786.97;;;19.77;68.58
64388;BME280;50709;52.648;4.764;2023-05-07T08:37:59;101752.81;;;19.19;69.62
64388;BME280;50709;52.648;4.764;2023-05-07T08:40:25;101782.34;;;19.90;67.67
64388;BME280;50709;52.648;4.764;2023-05-07T08:42:53;101784.25;;;20.22;66.96
64388;BME280;50709;52.648;4.764;2023-05-07T08:45:19;101793.53;;;20.03;66.82
64388;BME280;50709;52.648;4.764;2023-05-07T08:47:52;101791.59;;;20.09;66.84
64388;BME280;50709;52.648;4.764;2023-05-07T08:50:18;101783.84;;;20.02;66.71
64388;BME280;50709;52.648;4.764;2023-05-07T08:52:45;101793.22;;;19.74;66.54
64388;BME280;50709;52.648;4.764;2023-05-07T08:55:10;101791.13;;;19.48;65.66
64388;BME280;50709;52.648;4.764;2023-05-07T08:57:37;101789.34;;;19.92;65.18
64388;BME280;50709;52.648;4.764;2023-05-07T09:00:04;101807.59;;;20.06;64.57
64388;BME280;50709;52.648;4.764;2023-05-07T09:02:31;101803.53;;;20.30;64.63
64388;BME280;50709;52.648;4.764;2023-05-07T09:04:57;101797.88;;;20.05;64.90
64388;BME280;50709;52.648;4.764;2023-05-07T09:07:22;101797.75;;;20.11;65.07
64388;BME280;50709;52.648;4.764;2023-05-07T09:09:48;101794.09;;;20.17;65.79
64388;BME280;50709;52.648;4.764;2023-05-07T09:12:14;101800.41;;;20.50;64.10
64388;BME280;50709;52.648;4.764;2023-05-07T09:14:40;101789.56;;;20.60;63.72
64388;BME280;50709;52.648;4.764;2023-05-07T09:17:05;101792.16;;;19.85;65.24
64388;BME280;50709;52.648;4.764;2023-05-07T09:19:31;101810.75;;;20.24;65.78
64388;BME280;50709;52.648;4.764;2023-05-07T09:22:04;101807.78;;;19.97;66.71
64388;BME280;50709;52.648;4.764;2023-05-07T09:24:30;101795.41;;;19.97;65.83
64388;BME280;50709;52.648;4.764;2023-05-07T09:27:00;101787.97;;;20.13;65.56
64388;BME280;50709;52.648;4.764;2023-05-07T09:29:26;101800.53;;;20.44;66.02
64388;BME280;50709;52.648;4.764;2023-05-07T09:31:54;101771.13;;;20.54;64.87
64388;BME280;50709;52.648;4.764;2023-05-07T09:34:20;101806.47;;;20.56;64.97
64388;BME280;50709;52.648;4.764;2023-05-07T09:36:45;101795.75;;;20.59;65.43
64388;BME280;50709;52.648;4.764;2023-05-07T09:39:10;101790.16;;;20.33;65.41
64388;BME280;50709;52.648;4.764;2023-05-07T09:41:48;101802.69;;;20.64;65.68
64388;BME280;50709;52.648;4.764;2023-05-07T09:44:19;101805.13;;;21.10;64.06
64388;BME280;50709;52.648;4.764;2023-05-07T09:46:46;101807.41;;;20.91;64.45
64388;BME280;50709;52.648;4.764;2023-05-07T09:49:17;101789.44;;;20.64;64.76
64388;BME280;50709;52.648;4.764;2023-05-07T09:51:50;101811.56;;;20.63;65.30
64388;BME280;50709;52.648;4.764;2023-05-07T09:54:16;101801.84;;;21.33;63.97
64388;BME280;50709;52.648;4.764;2023-05-07T09:56:43;101805.31;;;21.02;64.41
64388;BME280;50709;52.648;4.764;2023-05-07T09:59:14;101805.78;;;20.83;64.57
64388;BME280;50709;52.648;4.764;2023-05-07T10:01:41;101798.78;;;20.81;63.81
64388;BME280;50709;52.648;4.764;2023-05-07T10:04:08;101810.09;;;20.88;64.21
64388;BME280;50709;52.648;4.764;2023-05-07T10:06:35;101809.25;;;20.49;64.83
64388;BME280;50709;52.648;4.764;2023-05-07T10:09:01;101793.19;;;20.92;64.39
64388;BME280;50709;52.648;4.764;2023-05-07T10:11:27;101807.28;;;20.58;64.69
64388;BME280;50709;52.648;4.764;2023-05-07T10:13:53;101811.09;;;20.83;64.55
64388;BME280;50709;52.648;4.764;2023-05-07T10:16:19;101810.38;;;20.77;63.65
64388;BME280;50709;52.648;4.764;2023-05-07T10:18:46;101811.31;;;20.38;64.31
64388;BME280;50709;52.648;4.764;2023-05-07T10:21:18;101792.25;;;20.57;64.09
64388;BME280;50709;52.648;4.764;2023-05-07T10:24:05;101816.22;;;20.91;63.65
64388;BME280;50709;52.648;4.764;2023-05-07T10:26:32;101815.19;;;20.22;64.70
64388;BME280;50709;52.648;4.764;2023-05-07T10:29:05;101802.75;;;20.63;64.74
64388;BME280;50709;52.648;4.764;2023-05-07T10:31:55;101819.78;;;21.25;62.82
64388;BME280;50709;52.648;4.764;2023-05-07T10:34:27;101815.81;;;21.07;63.08
64388;BME280;50709;52.648;4.764;2023-05-07T10:36:54;101804.06;;;20.45;64.05
64388;BME280;50709;52.648;4.764;2023-05-07T10:39:20;101809.16;;;21.25;62.55
64388;BME280;50709;52.648;4.764;2023-05-07T10:41:47;101819.00;;;21.52;61.25
64388;BME280;50709;52.648;4.764;2023-05-07T10:44:27;101825.31;;;20.81;63.12
64388;BME280;50709;52.648;4.764;2023-05-07T10:47:04;101822.41;;;20.54;62.84
64388;BME280;50709;52.648;4.764;2023-05-07T10:49:30;101815.38;;;20.89;62.86
64388;BME280;50709;52.648;4.764;2023-05-07T10:52:24;101828.88;;;20.42;63.50
64388;BME280;50709;52.648;4.764;2023-05-07T10:57:50;101817.69;;;20.67;63.30
64388;BME280;50709;52.648;4.764;2023-05-07T11:05:24;101832.50;;;20.40;64.50
64388;BME280;50709;52.648;4.764;2023-05-07T11:08:03;101822.34;;;20.57;63.95
64388;BME280;50709;52.648;4.764;2023-05-07T11:10:51;101839.53;;;20.78;62.69
64388;BME280;50709;52.648;4.764;2023-05-07T11:13:18;101825.81;;;20.59;63.46
64388;BME280;50709;52.648;4.764;2023-05-07T11:16:03;101833.94;;;20.91;63.08
64388;BME280;50709;52.648;4.764;2023-05-07T11:23:57;101815.28;;;21.60;60.52
64388;BME280;50709;52.648;4.764;2023-05-07T11:26:24;101834.63;;;21.32;60.96
64388;BME280;50709;52.648;4.764;2023-05-07T11:28:51;101829.09;;;21.40;60.38
64388;BME280;50709;52.648;4.764;2023-05-07T11:31:22;101831.34;;;21.55;60.59
64388;BME280;50709;52.648;4.764;2023-05-07T11:33:48;101836.25;;;21.71;60.74
64388;BME280;50709;52.648;4.764;2023-05-07T11:36:14;101826.16;;;21.50;60.18
64388;BME280;50709;52.648;4.764;2023-05-07T11:38:40;101828.53;;;21.61;60.34
64388;BME280;50709;52.648;4.764;2023-05-07T11:41:05;101833.53;;;21.41;60.72
64388;BME280;50709;52.648;4.764;2023-05-07T11:43:32;101802.59;;;20.71;61.61
64388;BME280;50709;52.648;4.764;2023-05-07T11:46:18;101830.69;;;21.14;61.17
64388;BME280;50709;52.648;4.764;2023-05-07T11:48:43;101835.78;;;20.87;61.61
64388;BME280;50709;52.648;4.764;2023-05-07T11:51:08;101835.72;;;21.25;61.04
64388;BME280;50709;52.648;4.764;2023-05-07T11:53:38;101842.19;;;21.47;60.32
64388;BME280;50709;52.648;4.764;2023-05-07T11:56:11;101840.19;;;20.88;61.75
64388;BME280;50709;52.648;4.764;2023-05-07T11:58:37;101822.53;;;21.22;61.32
64388;BME280;50709;52.648;4.764;2023-05-07T12:01:03;101818.53;;;20.67;61.00
64388;BME280;50709;52.648;4.764;2023-05-07T12:03:28;101828.69;;;20.88;60.22
64388;BME280;50709;52.648;4.764;2023-05-07T12:05:54;101842.78;;;21.26;60.24
64388;BME280;50709;52.648;4.764;2023-05-07T12:08:21;101856.53;;;21.07;60.10
64388;BME280;50709;52.648;4.764;2023-05-07T12:10:48;101849.66;;;20.61;60.30
64388;BME280;50709;52.648;4.764;2023-05-07T12:13:18;101854.56;;;20.79;60.97
64388;BME280;50709;52.648;4.764;2023-05-07T12:15:44;101846.56;;;20.81;60.60
64388;BME280;50709;52.648;4.764;2023-05-07T12:18:11;101859.28;;;21.04;60.65
64388;BME280;50709;52.648;4.764;2023-05-07T12:20:37;101865.13;;;21.17;60.41
64388;BME280;50709;52.648;4.764;2023-05-07T12:23:02;101856.41;;;20.77;61.38
64388;BME280;50709;52.648;4.764;2023-05-07T12:25:35;101872.84;;;20.53;64.81
64388;BME280;50709;52.648;4.764;2023-05-07T12:28:02;101857.66;;;20.97;64.12
64388;BME280;50709;52.648;4.764;2023-05-07T12:30:28;101861.94;;;20.66;65.94
64388;BME280;50709;52.648;4.764;2023-05-07T12:32:54;101856.41;;;20.77;66.95
64388;BME280;50709;52.648;4.764;2023-05-07T12:35:36;101846.59;;;21.15;65.75
64388;BME280;50709;52.648;4.764;2023-05-07T12:38:01;101854.75;;;20.72;66.83
64388;BME280;50709;52.648;4.764;2023-05-07T12:40:37;101860.50;;;20.12;68.65
64388;BME280;50709;52.648;4.764;2023-05-07T12:43:02;101870.47;;;20.01;68.86
64388;BME280;50709;52.648;4.764;2023-05-07T12:45:28;101849.69;;;19.78;69.67
64388;BME280;50709;52.648;4.764;2023-05-07T12:47:53;101857.88;;;20.50;68.22
64388;BME280;50709;52.648;4.764;2023-05-07T12:50:18;101864.00;;;20.54;68.39
64388;BME280;50709;52.648;4.764;2023-05-07T12:52:47;101833.69;;;20.64;67.60
64388;BME280;50709;52.648;4.764;2023-05-07T12:55:16;101852.84;;;21.13;65.74
64388;BME280;50709;52.648;4.764;2023-05-07T12:57:43;101863.78;;;20.63;67.13
64388;BME280;50709;52.648;4.764;2023-05-07T13:00:11;101865.53;;;20.64;66.88
64388;BME280;50709;52.648;4.764;2023-05-07T13:02:41;101842.72;;;20.16;68.22